createdAt,value
2019-04-11T00:00:07.007Z,0.00
2019-04-11T00:01:08.039Z,0.00
2019-04-11T00:02:06.941Z,0.00
2019-04-11T00:03:07.099Z,0.00
2019-04-11T00:04:08.136Z,0.00
2019-04-11T00:05:06.904Z,0.00
2019-04-11T00:06:07.501Z,0.00
2019-04-11T00:07:07.832Z,0.00
2019-04-11T00:08:07.986Z,0.00
2019-04-11T00:09:08.091Z,0.00
2019-04-11T00:10:06.901Z,0.00
2019-04-11T00:11:06.852Z,0.00
2019-04-11T00:12:06.830Z,0.00
2019-04-11T00:13:17.337Z,0.00
2019-04-11T00:14:07.825Z,0.00
2019-04-11T00:15:06.798Z,0.00
2019-04-11T00:16:06.972Z,0.00
2019-04-11T00:17:07.752Z,0.00
2019-04-11T00:18:06.783Z,0.00
2019-04-11T00:19:07.282Z,0.00
2019-04-11T00:20:07.674Z,0.00
2019-04-11T00:21:06.866Z,0.00
2019-04-11T00:22:06.744Z,0.00
2019-04-11T00:23:07.811Z,0.00
2019-04-11T00:24:07.095Z,0.00
2019-04-11T00:25:07.362Z,0.00
2019-04-11T00:26:06.696Z,0.00
2019-04-11T00:27:06.672Z,0.00
2019-04-11T00:28:07.648Z,0.00
2019-04-11T00:29:06.982Z,0.00
2019-04-11T00:30:06.632Z,0.00
2019-04-11T00:31:06.639Z,0.00
2019-04-11T00:32:09.185Z,0.00
2019-04-11T00:33:07.786Z,0.00
2019-04-11T00:34:06.913Z,0.00
2019-04-11T00:35:07.150Z,0.00
2019-04-11T00:36:06.563Z,0.00
2019-04-11T00:37:06.578Z,0.00
2019-04-11T00:38:07.639Z,0.00
2019-04-11T00:39:07.621Z,0.00
2019-04-11T00:40:06.526Z,0.00
2019-04-11T00:41:06.526Z,0.00
2019-04-11T00:42:06.554Z,0.00
2019-04-11T00:43:07.340Z,0.00
2019-04-11T00:44:06.479Z,0.00
2019-04-11T00:45:07.507Z,0.00
2019-04-11T00:46:06.467Z,0.00
2019-04-11T00:47:06.947Z,0.00
2019-04-11T00:48:06.447Z,0.00
2019-04-11T00:49:06.424Z,0.00
2019-04-11T00:50:07.398Z,0.00
2019-04-11T00:51:07.608Z,0.00
2019-04-11T00:52:06.595Z,0.00
2019-04-11T00:53:06.574Z,0.00
2019-04-11T00:54:06.710Z,0.00
2019-04-11T00:55:07.175Z,0.00
2019-04-11T00:56:06.366Z,0.00
2019-04-11T00:57:06.602Z,0.00
2019-04-11T00:58:07.469Z,0.00
2019-04-11T00:59:06.339Z,0.00
2019-04-11T01:00:06.959Z,0.00
2019-04-11T01:01:07.200Z,0.00
2019-04-11T01:02:07.270Z,0.00
2019-04-11T01:03:06.533Z,0.00
2019-04-11T01:04:07.487Z,0.00
2019-04-11T01:05:07.454Z,0.00
2019-04-11T01:06:06.273Z,0.00
2019-04-11T01:07:06.857Z,0.00
2019-04-11T01:08:07.226Z,0.00
2019-04-11T01:09:06.378Z,0.00
2019-04-11T01:10:06.645Z,0.00
2019-04-11T01:11:06.182Z,0.00
2019-04-11T01:12:06.175Z,0.00
2019-04-11T01:13:07.141Z,0.00
2019-04-11T01:14:06.200Z,0.00
2019-04-11T01:15:07.032Z,0.00
2019-04-11T01:16:07.094Z,0.00
2019-04-11T01:17:07.503Z,0.00
2019-04-11T01:18:06.110Z,0.00
2019-04-11T01:19:06.665Z,0.00
2019-04-11T01:20:07.007Z,0.00
2019-04-11T01:21:06.258Z,0.00
2019-04-11T01:22:06.114Z,0.00
2019-04-11T01:23:06.846Z,0.00
2019-04-11T01:24:06.992Z,0.00
2019-04-11T01:25:06.341Z,0.00
2019-04-11T01:26:06.019Z,0.00
2019-04-11T01:27:06.008Z,0.00
2019-04-11T01:28:06.806Z,0.00
2019-04-11T01:29:07.082Z,0.00
2019-04-11T01:30:06.208Z,0.00
2019-04-11T01:31:06.180Z,0.00
2019-04-11T01:32:06.503Z,0.00
2019-04-11T01:33:06.639Z,0.00
2019-04-11T01:34:06.489Z,0.00
2019-04-11T01:35:06.900Z,0.00
2019-04-11T01:36:06.963Z,0.00
2019-04-11T01:37:07.138Z,0.00
2019-04-11T01:38:06.226Z,0.00
2019-04-11T01:39:05.902Z,0.00
2019-04-11T01:40:05.868Z,0.00
2019-04-11T01:41:06.611Z,0.00
2019-04-11T01:42:06.924Z,0.00
2019-04-11T01:43:06.051Z,0.00
2019-04-11T01:44:07.482Z,0.00
2019-04-11T01:45:05.827Z,0.00
2019-04-11T01:46:05.822Z,0.00
2019-04-11T01:47:06.683Z,0.00
2019-04-11T01:48:06.955Z,0.00
2019-04-11T01:49:06.135Z,0.00
2019-04-11T01:50:05.775Z,0.00
2019-04-11T01:51:05.748Z,0.00
2019-04-11T01:52:06.512Z,0.00
2019-04-11T01:53:06.736Z,0.00
2019-04-11T01:54:05.796Z,0.00
2019-04-11T01:55:05.704Z,0.00
2019-04-11T01:56:05.716Z,0.00
2019-04-11T01:57:05.683Z,0.00
2019-04-11T01:58:06.631Z,0.00
2019-04-11T01:59:06.899Z,0.00
2019-04-11T02:00:06.001Z,0.00
2019-04-11T02:01:06.356Z,0.00
2019-04-11T02:02:05.647Z,0.00
2019-04-11T02:03:06.715Z,0.00
2019-04-11T02:04:05.857Z,0.00
2019-04-11T02:05:05.595Z,0.00
2019-04-11T02:06:05.644Z,0.00
2019-04-11T02:07:06.586Z,0.00
2019-04-11T02:08:05.573Z,0.00
2019-04-11T02:09:06.061Z,0.00
2019-04-11T02:10:05.545Z,0.00
2019-04-11T02:11:06.632Z,0.00
2019-04-11T02:12:05.820Z,0.00
2019-04-11T02:13:05.873Z,0.00
2019-04-11T02:14:12.450Z,0.00
2019-04-11T02:15:06.504Z,0.00
2019-04-11T02:16:05.477Z,0.00
2019-04-11T02:17:06.417Z,0.00
2019-04-11T02:18:05.502Z,0.00
2019-04-11T02:19:05.515Z,0.00
2019-04-11T02:20:05.429Z,0.00
2019-04-11T02:21:05.419Z,0.00
2019-04-11T02:22:06.491Z,0.00
2019-04-11T02:23:06.657Z,0.00
2019-04-11T02:24:05.849Z,0.00
2019-04-11T02:25:05.986Z,0.00
2019-04-11T02:26:05.375Z,0.00
2019-04-11T02:27:06.414Z,0.00
2019-04-11T02:28:06.487Z,0.00
2019-04-11T02:29:05.585Z,0.00
2019-04-11T02:31:20.455Z,0.00
2019-04-11T02:32:28.624Z,0.00
2019-04-11T02:33:26.781Z,0.00
2019-04-11T02:34:19.369Z,0.00
2019-04-11T02:35:19.847Z,0.00
2019-04-11T02:36:18.870Z,0.00
2019-04-11T02:37:19.731Z,0.00
2019-04-11T02:38:18.977Z,0.00
2019-04-11T02:39:20.306Z,0.00
2019-04-11T02:40:20.090Z,0.00
2019-04-11T02:41:18.920Z,0.00
2019-04-11T02:42:19.004Z,0.00
2019-04-11T02:43:18.108Z,0.00
2019-04-11T02:44:52.389Z,0.00
2019-04-11T02:45:35.515Z,0.00
2019-04-11T02:46:27.793Z,0.00
2019-04-11T02:47:24.198Z,0.00
2019-04-11T02:48:20.425Z,0.00
2019-04-11T02:49:19.336Z,0.00
2019-04-11T02:50:20.566Z,0.00
2019-04-11T02:51:18.312Z,0.00
2019-04-11T02:52:19.463Z,0.00
2019-04-11T02:53:17.872Z,0.00
2019-04-11T02:54:19.896Z,0.00
2019-04-11T02:55:19.170Z,0.00
2019-04-11T02:56:19.296Z,0.00
2019-04-11T02:57:18.354Z,0.00
2019-04-11T02:58:18.631Z,0.00
2019-04-11T02:59:19.508Z,0.00
2019-04-11T03:00:18.095Z,0.00
2019-04-11T03:01:17.981Z,0.00
2019-04-11T03:02:19.513Z,0.00
2019-04-11T03:03:17.907Z,0.00
2019-04-11T03:04:20.110Z,0.00
2019-04-11T03:05:18.390Z,0.00
2019-04-11T03:06:19.347Z,0.00
2019-04-11T03:07:17.727Z,0.00
2019-04-11T03:08:19.633Z,0.00
2019-04-11T03:09:19.551Z,0.00
2019-04-11T03:10:18.794Z,0.00
2019-04-11T03:11:19.186Z,0.00
2019-04-11T03:12:19.369Z,0.00
2019-04-11T03:13:19.035Z,0.00
2019-04-11T03:14:19.050Z,0.00
2019-04-11T03:15:31.740Z,0.00
2019-04-11T03:16:32.810Z,0.00
2019-04-11T03:17:23.099Z,0.00
2019-04-11T03:18:39.194Z,0.00
2019-04-11T03:19:35.703Z,0.00
2019-04-11T03:20:26.559Z,0.00
2019-04-11T03:21:21.587Z,0.00
2019-04-11T03:22:18.266Z,0.00
2019-04-11T03:23:20.904Z,0.00
2019-04-11T03:24:18.166Z,0.00
2019-04-11T03:25:17.836Z,0.00
2019-04-11T03:26:18.989Z,0.00
2019-04-11T03:27:17.947Z,0.00
2019-04-11T03:28:22.595Z,0.00
2019-04-11T03:29:19.907Z,0.00
2019-04-11T03:30:25.031Z,0.00
2019-04-11T03:32:13.596Z,0.00
2019-04-11T03:33:00.555Z,0.00
2019-04-11T03:34:12.723Z,0.00
2019-04-11T03:35:09.306Z,0.00
2019-04-11T03:37:08.659Z,0.00
2019-04-11T03:37:44.641Z,0.00
2019-04-11T03:38:42.369Z,0.00
2019-04-11T03:39:41.212Z,0.00
2019-04-11T03:40:38.691Z,0.00
2019-04-11T03:41:34.142Z,0.00
2019-04-11T03:42:36.619Z,0.00
2019-04-11T03:43:30.237Z,0.00
2019-04-11T03:44:24.443Z,0.00
2019-04-11T03:45:41.057Z,0.00
2019-04-11T03:46:33.911Z,0.00
2019-04-11T03:47:31.961Z,0.00
2019-04-11T03:48:35.562Z,0.00
2019-04-11T03:49:29.172Z,0.00
2019-04-11T03:50:23.275Z,0.00
2019-04-11T03:51:20.496Z,0.00
2019-04-11T03:52:17.401Z,0.00
2019-04-11T03:53:19.182Z,0.00
2019-04-11T03:54:17.964Z,0.00
2019-04-11T03:55:17.189Z,0.00
2019-04-11T03:56:19.569Z,0.00
2019-04-11T03:57:17.503Z,0.00
2019-04-11T03:58:17.536Z,0.00
2019-04-11T03:59:19.054Z,0.00
2019-04-11T04:00:17.129Z,0.00
2019-04-11T04:01:18.424Z,0.00
2019-04-11T04:02:17.161Z,0.00
2019-04-11T04:03:18.227Z,0.00
2019-04-11T04:04:19.491Z,0.00
2019-04-11T04:05:17.652Z,0.00
2019-04-11T04:06:17.101Z,0.00
2019-04-11T04:07:17.053Z,0.00
2019-04-11T04:08:17.928Z,0.00
2019-04-11T04:09:18.696Z,0.00
2019-04-11T04:10:18.393Z,0.00
2019-04-11T04:11:18.904Z,0.00
2019-04-11T04:12:18.532Z,0.00
2019-04-11T04:13:18.691Z,0.00
2019-04-11T04:14:17.783Z,0.00
2019-04-11T04:15:33.955Z,0.00
2019-04-11T04:16:24.926Z,0.00
2019-04-11T04:17:19.290Z,0.00
2019-04-11T04:18:16.931Z,4.00
2019-04-11T04:19:18.394Z,0.00
2019-04-11T04:20:17.258Z,0.00
2019-04-11T04:21:17.429Z,4.00
2019-04-11T04:22:18.560Z,0.00
2019-04-11T04:23:16.880Z,4.00
2019-04-11T04:24:16.866Z,0.00
2019-04-11T04:25:18.670Z,4.00
2019-04-11T04:26:17.172Z,4.00
2019-04-11T04:27:17.306Z,0.00
2019-04-11T04:28:16.836Z,4.00
2019-04-11T04:29:17.939Z,4.00
2019-04-11T04:30:18.081Z,4.00
2019-04-11T04:31:18.438Z,8.00
2019-04-11T04:32:18.511Z,8.00
2019-04-11T04:33:17.198Z,8.00
2019-04-11T04:34:17.770Z,4.00
2019-04-11T04:35:19.747Z,8.00
2019-04-11T04:36:18.253Z,12.00
2019-04-11T04:37:18.084Z,12.00
2019-04-11T04:38:16.732Z,12.00
2019-04-11T04:39:17.435Z,12.00
2019-04-11T04:40:31.595Z,16.00
2019-04-11T04:41:29.837Z,20.00
2019-04-11T04:42:24.895Z,16.00
2019-04-11T04:43:18.762Z,28.00
2019-04-11T04:44:17.034Z,24.00
2019-04-11T04:45:16.734Z,28.00
2019-04-11T04:46:29.997Z,32.00
2019-04-11T04:47:25.072Z,32.00
2019-04-11T04:48:20.892Z,40.00
2019-04-11T04:49:18.630Z,36.00
2019-04-11T04:50:18.084Z,40.00
2019-04-11T04:51:18.365Z,44.00
2019-04-11T04:52:16.566Z,44.00
2019-04-11T04:53:17.921Z,60.00
2019-04-11T04:54:16.539Z,52.00
2019-04-11T04:55:17.267Z,68.00
2019-04-11T04:56:21.975Z,64.00
2019-04-11T04:57:18.263Z,68.00
2019-04-11T04:58:17.957Z,80.00
2019-04-11T04:59:16.484Z,72.00
2019-04-11T05:00:16.466Z,96.00
2019-04-11T05:01:17.171Z,84.00
2019-04-11T05:02:17.804Z,96.00
2019-04-11T05:03:17.731Z,108.00
2019-04-11T05:04:16.428Z,96.00
2019-04-11T05:05:17.844Z,124.00
2019-04-11T05:06:16.503Z,112.00
2019-04-11T05:07:17.196Z,128.00
2019-04-11T05:08:16.656Z,140.00
2019-04-11T05:09:17.785Z,132.00
2019-04-11T05:10:16.363Z,168.00
2019-04-11T05:11:17.910Z,148.00
2019-04-11T05:12:16.364Z,176.00
2019-04-11T05:13:17.227Z,176.00
2019-04-11T05:14:16.367Z,180.00
2019-04-11T05:15:16.805Z,220.00
2019-04-11T05:16:17.841Z,180.00
2019-04-11T05:17:17.138Z,220.00
2019-04-11T05:18:18.059Z,208.00
2019-04-11T05:19:17.007Z,224.00
2019-04-11T05:20:16.367Z,236.00
2019-04-11T05:21:17.086Z,224.00
2019-04-11T05:22:16.823Z,292.00
2019-04-11T05:23:16.992Z,264.00
2019-04-11T05:24:16.647Z,296.00
2019-04-11T05:25:16.205Z,312.00
2019-04-11T05:26:17.282Z,276.00
2019-04-11T05:27:17.352Z,336.00
2019-04-11T05:28:16.165Z,316.00
2019-04-11T05:29:17.176Z,332.00
2019-04-11T05:30:16.712Z,352.00
2019-04-11T05:31:16.428Z,332.00
2019-04-11T05:32:16.140Z,380.00
2019-04-11T05:33:16.105Z,372.00
2019-04-11T05:34:16.135Z,372.00
2019-04-11T05:35:16.528Z,428.00
2019-04-11T05:36:16.582Z,400.00
2019-04-11T05:37:16.059Z,440.00
2019-04-11T05:38:16.773Z,412.00
2019-04-11T05:39:18.428Z,460.00
2019-04-11T05:40:16.873Z,472.00
2019-04-11T05:41:16.016Z,468.00
2019-04-11T05:42:18.956Z,640.00
2019-04-11T05:43:16.004Z,652.00
2019-04-11T05:44:16.752Z,592.00
2019-04-11T05:45:21.047Z,580.00
2019-04-11T05:46:32.535Z,608.00
2019-04-11T05:47:18.557Z,644.00
2019-04-11T05:48:15.937Z,588.00
2019-04-11T05:49:16.927Z,644.00
2019-04-11T05:50:15.980Z,676.00
2019-04-11T05:51:20.394Z,716.00
2019-04-11T05:52:17.799Z,816.00
2019-04-11T05:53:17.494Z,736.00
2019-04-11T05:54:16.398Z,808.00
2019-04-11T05:55:15.872Z,852.00
2019-04-11T05:56:16.716Z,900.00
2019-04-11T05:57:20.828Z,1092.00
2019-04-11T05:58:17.707Z,1260.00
2019-04-11T05:59:17.179Z,1172.00
2019-04-11T06:00:15.939Z,996.00
2019-04-11T06:01:15.891Z,1028.00
2019-04-11T06:02:17.085Z,1284.00
2019-04-11T06:03:15.771Z,1604.00
2019-04-11T06:04:20.477Z,1584.00
2019-04-11T06:05:17.260Z,1864.00
2019-04-11T06:06:16.364Z,2656.00
2019-04-11T06:07:16.761Z,2968.00
2019-04-11T06:08:22.447Z,2456.00
2019-04-11T06:09:16.704Z,1304.00
2019-04-11T06:10:15.692Z,1656.00
2019-04-11T06:11:19.306Z,1636.00
2019-04-11T06:12:17.141Z,1632.00
2019-04-11T06:13:16.402Z,2592.00
2019-04-11T06:14:15.651Z,4044.00
2019-04-11T06:15:15.743Z,4136.00
2019-04-11T06:16:16.744Z,2688.00
2019-04-11T06:17:15.933Z,1528.00
2019-04-11T06:18:26.197Z,1524.00
2019-04-11T06:19:16.592Z,1556.00
2019-04-11T06:20:15.613Z,1392.00
2019-04-11T06:21:15.784Z,1276.00
2019-04-11T06:22:15.583Z,1492.00
2019-04-11T06:23:15.549Z,1692.00
2019-04-11T06:24:16.315Z,1368.00
2019-04-11T06:25:16.551Z,1460.00
2019-04-11T06:26:16.667Z,1600.00
2019-04-11T06:27:16.872Z,1900.00
2019-04-11T06:28:15.507Z,1772.00
2019-04-11T06:29:21.277Z,2024.00
2019-04-11T06:30:16.488Z,1980.00
2019-04-11T06:31:16.021Z,1812.00
2019-04-11T06:32:15.925Z,1968.00
2019-04-11T06:33:16.481Z,1564.00
2019-04-11T06:34:15.583Z,2060.00
2019-04-11T06:35:15.686Z,2848.00
2019-04-11T06:36:16.067Z,3756.00
2019-04-11T06:37:15.394Z,3864.00
2019-04-11T06:38:16.421Z,3524.00
2019-04-11T06:39:15.600Z,4200.00
2019-04-11T06:40:15.905Z,7392.00
2019-04-11T06:41:16.609Z,11152.00
2019-04-11T06:42:15.343Z,13728.00
2019-04-11T06:43:16.788Z,10228.00
2019-04-11T06:44:16.354Z,9168.00
2019-04-11T06:45:15.558Z,13600.00
2019-04-11T06:46:15.297Z,10832.00
2019-04-11T06:47:15.299Z,11560.00
2019-04-11T06:48:15.715Z,15264.00
2019-04-11T06:49:15.274Z,16704.00
2019-04-11T06:50:15.295Z,10704.00
2019-04-11T06:51:15.627Z,14464.00
2019-04-11T06:52:15.243Z,19072.00
2019-04-11T06:53:15.241Z,15392.00
2019-04-11T06:54:15.208Z,17792.00
2019-04-11T06:55:15.197Z,16416.00
2019-04-11T06:56:15.185Z,16096.00
2019-04-11T06:57:15.999Z,17504.00
2019-04-11T06:58:15.175Z,15072.00
2019-04-11T06:59:16.343Z,13280.00
2019-04-11T07:00:15.141Z,11248.00
2019-04-11T07:01:16.102Z,8480.00
2019-04-11T07:02:19.759Z,5476.00
2019-04-11T07:03:22.638Z,6720.00
2019-04-11T07:04:16.130Z,8380.00
2019-04-11T07:05:16.113Z,8872.00
2019-04-11T07:06:15.426Z,13200.00
2019-04-11T07:07:16.296Z,20032.00
2019-04-11T07:08:16.022Z,21120.00
2019-04-11T07:09:15.054Z,13424.00
2019-04-11T07:10:15.032Z,13152.00
2019-04-11T07:11:15.652Z,13280.00
2019-04-11T07:12:15.615Z,10192.00
2019-04-11T07:13:15.030Z,11388.00
2019-04-11T07:14:15.043Z,10956.00
2019-04-11T07:15:15.003Z,15584.00
2019-04-11T07:16:15.436Z,16000.00
2019-04-11T07:17:15.495Z,12244.00
2019-04-11T07:18:15.102Z,16704.00
2019-04-11T07:19:15.575Z,27808.00
2019-04-11T07:20:14.950Z,20416.00
2019-04-11T07:21:15.029Z,10784.00
2019-04-11T07:22:15.322Z,7544.00
2019-04-11T07:23:15.643Z,10408.00
2019-04-11T07:24:16.018Z,8040.00
2019-04-11T07:25:14.866Z,10140.00
2019-04-11T07:26:14.920Z,8488.00
2019-04-11T07:27:15.925Z,3964.00
2019-04-11T07:28:14.851Z,2956.00
2019-04-11T07:29:15.242Z,11536.00
2019-04-11T07:30:15.730Z,15936.00
2019-04-11T07:31:14.800Z,9308.00
2019-04-11T07:32:16.116Z,2560.00
2019-04-11T07:33:15.984Z,2140.00
2019-04-11T07:34:14.829Z,2112.00
2019-04-11T07:35:15.592Z,2012.00
2019-04-11T07:36:14.769Z,1964.00
2019-04-11T07:37:15.011Z,2000.00
2019-04-11T07:38:14.773Z,2080.00
2019-04-11T07:39:14.738Z,2072.00
2019-04-11T07:40:15.613Z,2088.00
2019-04-11T07:41:15.076Z,2172.00
2019-04-11T07:42:15.897Z,2124.00
2019-04-11T07:43:15.769Z,2068.00
2019-04-11T07:44:15.424Z,2136.00
2019-04-11T07:45:15.764Z,2152.00
2019-04-11T07:46:15.001Z,2108.00
2019-04-11T07:47:19.204Z,2128.00
2019-04-11T07:48:15.610Z,2224.00
2019-04-11T07:49:15.661Z,2200.00
2019-04-11T07:50:16.783Z,2364.00
2019-04-11T07:51:15.342Z,2276.00
2019-04-11T07:52:15.527Z,2340.00
2019-04-11T07:53:14.555Z,2588.00
2019-04-11T07:54:15.717Z,2448.00
2019-04-11T07:55:14.536Z,2256.00
2019-04-11T07:56:14.566Z,2556.00
2019-04-11T07:57:14.931Z,2524.00
2019-04-11T07:58:15.344Z,2548.00
2019-04-11T07:59:14.982Z,2692.00
2019-04-11T08:00:15.051Z,2664.00
2019-04-11T08:01:14.759Z,2672.00
2019-04-11T08:02:14.504Z,2836.00
2019-04-11T08:03:14.543Z,2804.00
2019-04-11T08:04:15.065Z,2816.00
2019-04-11T08:05:15.433Z,2892.00
2019-04-11T08:06:15.456Z,2864.00
2019-04-11T08:07:15.423Z,2888.00
2019-04-11T08:08:15.402Z,3000.00
2019-04-11T08:09:15.318Z,2952.00
2019-04-11T08:10:14.372Z,2896.00
2019-04-11T08:11:15.639Z,3032.00
2019-04-11T08:12:15.020Z,2976.00
2019-04-11T08:13:14.403Z,2880.00
2019-04-11T08:14:14.388Z,3084.00
2019-04-11T08:15:15.406Z,3020.00
2019-04-11T08:16:14.751Z,2920.00
2019-04-11T08:17:27.098Z,3116.00
2019-04-11T08:18:15.276Z,3076.00
2019-04-11T08:19:15.303Z,2976.00
2019-04-11T08:20:15.267Z,3156.00
2019-04-11T08:21:14.345Z,3128.00
2019-04-11T08:22:14.776Z,3056.00
2019-04-11T08:23:14.253Z,3016.00
2019-04-11T08:24:14.216Z,3196.00
2019-04-11T08:25:15.306Z,3160.00
2019-04-11T08:26:14.253Z,3136.00
2019-04-11T08:27:14.182Z,3248.00
2019-04-11T08:28:14.212Z,3252.00
2019-04-11T08:29:16.031Z,3180.00
2019-04-11T08:30:14.898Z,3144.00
2019-04-11T08:31:15.160Z,3296.00
2019-04-11T08:32:14.150Z,3244.00
2019-04-11T08:33:14.212Z,3184.00
2019-04-11T08:34:21.924Z,3232.00
2019-04-11T08:35:14.087Z,3296.00
2019-04-11T08:36:14.076Z,3276.00
2019-04-11T08:37:14.091Z,3200.00
2019-04-11T08:38:14.060Z,3268.00
2019-04-11T08:39:15.475Z,3300.00
2019-04-11T08:40:14.032Z,3304.00
2019-04-11T08:41:14.021Z,3252.00
2019-04-11T08:42:14.971Z,3152.00
2019-04-11T08:43:15.002Z,3200.00
2019-04-11T08:44:14.007Z,3332.00
2019-04-11T08:45:14.570Z,3320.00
2019-04-11T08:46:15.027Z,3268.00
2019-04-11T08:47:13.996Z,3320.00
2019-04-11T08:48:15.059Z,3360.00
2019-04-11T08:49:13.945Z,3360.00
2019-04-11T08:50:14.352Z,3388.00
2019-04-11T08:51:14.829Z,3368.00
2019-04-11T08:52:13.973Z,3408.00
2019-04-11T08:53:13.887Z,3464.00
2019-04-11T08:54:13.901Z,3408.00
2019-04-11T08:55:16.931Z,3400.00
2019-04-11T08:56:14.656Z,3344.00
2019-04-11T08:57:13.896Z,3264.00
2019-04-11T08:58:14.135Z,3284.00
2019-04-11T08:59:13.823Z,3332.00
2019-04-11T09:00:13.825Z,3428.00
2019-04-11T09:01:13.856Z,3392.00
2019-04-11T09:02:13.790Z,3328.00
2019-04-11T09:03:13.788Z,3320.00
2019-04-11T09:04:15.276Z,3328.00
2019-04-11T09:05:16.954Z,3444.00
2019-04-11T09:06:14.701Z,3432.00
2019-04-11T09:07:13.733Z,3404.00
2019-04-11T09:08:14.206Z,3416.00
2019-04-11T09:09:13.725Z,3416.00
2019-04-11T09:10:13.702Z,3452.00
2019-04-11T09:11:14.833Z,3372.00
2019-04-11T09:12:14.186Z,3464.00
2019-04-11T09:13:13.667Z,3476.00
2019-04-11T09:14:13.736Z,3412.00
2019-04-11T09:15:14.609Z,3416.00
2019-04-11T09:16:13.636Z,3444.00
2019-04-11T09:17:14.357Z,3464.00
2019-04-11T09:18:15.055Z,3456.00
2019-04-11T09:19:14.656Z,3476.00
2019-04-11T09:20:13.696Z,3464.00
2019-04-11T09:21:13.599Z,3464.00
2019-04-11T09:22:13.581Z,3480.00
2019-04-11T09:23:13.567Z,3476.00
2019-04-11T09:24:15.260Z,3492.00
2019-04-11T09:25:14.793Z,3556.00
2019-04-11T09:26:13.969Z,3576.00
2019-04-11T09:27:14.298Z,3508.00
2019-04-11T09:28:13.520Z,3492.00
2019-04-11T09:29:13.658Z,3436.00
2019-04-11T09:30:15.862Z,3404.00
2019-04-11T09:31:15.166Z,3304.00
2019-04-11T09:32:13.458Z,3224.00
2019-04-11T09:33:13.451Z,3420.00
2019-04-11T09:34:13.452Z,3536.00
2019-04-11T09:35:14.381Z,3476.00
2019-04-11T09:36:13.476Z,3432.00
2019-04-11T09:37:15.531Z,3416.00
2019-04-11T09:38:13.943Z,3380.00
2019-04-11T09:39:13.402Z,3408.00
2019-04-11T09:40:13.375Z,3420.00
2019-04-11T09:41:14.359Z,3440.00
2019-04-11T09:42:13.464Z,3448.00
2019-04-11T09:43:13.527Z,3468.00
2019-04-11T09:44:13.341Z,3492.00
2019-04-11T09:45:13.335Z,3492.00
2019-04-11T09:46:14.404Z,3484.00
2019-04-11T09:47:13.451Z,3524.00
2019-04-11T09:48:15.276Z,3548.00
2019-04-11T09:49:13.696Z,1172.00
2019-04-11T09:50:13.281Z,1256.00
2019-04-11T09:51:13.568Z,3912.00
2019-04-11T09:52:14.281Z,4044.00
2019-04-11T09:53:14.192Z,3700.00
2019-04-11T09:54:13.218Z,1664.00
2019-04-11T09:55:13.219Z,1628.00
2019-04-11T09:56:13.202Z,3908.00
2019-04-11T09:57:13.203Z,3912.00
2019-04-11T09:58:13.178Z,4008.00
2019-04-11T09:59:14.237Z,4020.00
2019-04-11T10:00:14.272Z,3948.00
2019-04-11T10:01:13.147Z,4108.00
2019-04-11T10:02:14.443Z,3820.00
2019-04-11T10:03:13.219Z,3932.00
2019-04-11T10:04:14.284Z,1572.00
2019-04-11T10:05:13.791Z,3828.00
2019-04-11T10:06:13.995Z,3960.00
2019-04-11T10:07:13.211Z,3824.00
2019-04-11T10:08:13.084Z,3136.00
2019-04-11T10:09:13.518Z,3788.00
2019-04-11T10:10:13.051Z,4000.00
2019-04-11T10:11:13.545Z,4004.00
2019-04-11T10:12:13.816Z,3788.00
2019-04-11T10:13:13.034Z,2356.00
2019-04-11T10:14:13.516Z,1428.00
2019-04-11T10:15:13.621Z,1368.00
2019-04-11T10:16:12.970Z,1360.00
2019-04-11T10:17:12.976Z,1480.00
2019-04-11T10:18:23.251Z,1536.00
2019-04-11T10:19:13.969Z,1500.00
2019-04-11T10:20:12.928Z,1464.00
2019-04-11T10:21:13.070Z,1868.00
2019-04-11T10:22:13.146Z,2888.00
2019-04-11T10:23:12.898Z,3800.00
2019-04-11T10:24:15.882Z,2172.00
2019-04-11T10:25:14.831Z,3196.00
2019-04-11T10:26:13.873Z,2344.00
2019-04-11T10:27:12.855Z,4072.00
2019-04-11T10:28:13.267Z,1316.00
2019-04-11T10:29:12.828Z,1256.00
2019-04-11T10:30:13.062Z,1244.00
2019-04-11T10:31:12.832Z,1900.00
2019-04-11T10:32:12.814Z,1592.00
2019-04-11T10:33:13.007Z,1548.00
2019-04-11T10:34:13.271Z,1984.00
2019-04-11T10:35:12.773Z,1732.00
2019-04-11T10:36:12.767Z,1872.00
2019-04-11T10:37:13.702Z,1600.00
2019-04-11T10:38:12.727Z,2012.00
2019-04-11T10:39:13.196Z,3804.00
2019-04-11T10:40:13.549Z,4276.00
2019-04-11T10:41:12.710Z,4504.00
2019-04-11T10:42:12.735Z,4428.00
2019-04-11T10:43:12.990Z,4328.00
2019-04-11T10:44:13.852Z,3160.00
2019-04-11T10:45:12.658Z,1820.00
2019-04-11T10:46:13.313Z,1644.00
2019-04-11T10:47:12.682Z,1620.00
2019-04-11T10:48:13.789Z,1412.00
2019-04-11T10:49:13.615Z,1424.00
2019-04-11T10:50:12.603Z,1512.00
2019-04-11T10:51:12.972Z,4408.00
2019-04-11T10:52:12.583Z,2752.00
2019-04-11T10:53:13.107Z,1832.00
2019-04-11T10:54:13.567Z,1628.00
2019-04-11T10:55:13.598Z,1772.00
2019-04-11T10:56:13.656Z,1528.00
2019-04-11T10:57:12.513Z,1788.00
2019-04-11T10:58:12.988Z,1448.00
2019-04-11T10:59:13.313Z,1536.00
2019-04-11T11:00:12.909Z,1512.00
2019-04-11T11:01:12.553Z,1488.00
2019-04-11T11:02:12.756Z,1456.00
2019-04-11T11:03:13.691Z,1436.00
2019-04-11T11:04:13.661Z,1324.00
2019-04-11T11:05:12.824Z,1300.00
2019-04-11T11:06:13.551Z,1428.00
2019-04-11T11:07:12.975Z,1456.00
2019-04-11T11:08:13.205Z,1620.00
2019-04-11T11:09:12.381Z,3412.00
2019-04-11T11:10:12.386Z,4208.00
2019-04-11T11:11:14.781Z,4004.00
2019-04-11T11:12:12.720Z,1848.00
2019-04-11T11:13:12.342Z,1552.00
2019-04-11T11:14:12.416Z,3488.00
2019-04-11T11:15:13.471Z,1736.00
2019-04-11T11:16:12.331Z,1456.00
2019-04-11T11:17:15.569Z,1416.00
2019-04-11T11:18:39.871Z,1412.00
2019-04-11T11:19:33.506Z,1412.00
2019-04-11T11:20:22.419Z,1404.00
2019-04-11T11:21:13.363Z,1512.00
2019-04-11T11:22:12.567Z,2496.00
2019-04-11T11:23:13.042Z,1856.00
2019-04-11T11:24:12.397Z,1772.00
2019-04-11T11:25:15.336Z,2424.00
2019-04-11T11:26:12.621Z,1432.00
2019-04-11T11:27:12.182Z,1352.00
2019-04-11T11:28:12.268Z,1304.00
2019-04-11T11:29:15.207Z,1276.00
2019-04-11T11:30:12.774Z,1304.00
2019-04-11T11:31:12.143Z,1372.00
2019-04-11T11:32:13.256Z,1344.00
2019-04-11T11:33:12.136Z,1328.00
2019-04-11T11:34:17.369Z,1376.00
2019-04-11T11:35:13.102Z,1192.00
2019-04-11T11:36:13.075Z,1128.00
2019-04-11T11:37:13.126Z,1036.00
2019-04-11T11:38:12.059Z,980.00
2019-04-11T11:39:13.076Z,1016.00
2019-04-11T11:40:15.012Z,1028.00
2019-04-11T11:41:12.218Z,1072.00
2019-04-11T11:42:12.402Z,1040.00
2019-04-11T11:43:12.007Z,992.00
2019-04-11T11:44:12.011Z,972.00
2019-04-11T11:45:13.102Z,1036.00
2019-04-11T11:46:12.236Z,1184.00
2019-04-11T11:47:12.031Z,1136.00
2019-04-11T11:48:17.392Z,1136.00
2019-04-11T11:49:14.265Z,1120.00
2019-04-11T11:50:18.197Z,1132.00
2019-04-11T11:51:13.082Z,1200.00
2019-04-11T11:52:13.000Z,1284.00
2019-04-11T11:53:13.328Z,1152.00
2019-04-11T11:54:11.883Z,1148.00
2019-04-11T11:55:12.424Z,1244.00
2019-04-11T11:56:11.863Z,1052.00
2019-04-11T11:57:12.838Z,1032.00
2019-04-11T11:58:16.825Z,1068.00
2019-04-11T11:59:13.290Z,1076.00
2019-04-11T12:00:12.686Z,1044.00
2019-04-11T12:01:11.825Z,1036.00
2019-04-11T12:02:15.691Z,1120.00
2019-04-11T12:03:12.918Z,1240.00
2019-04-11T12:04:12.773Z,1212.00
2019-04-11T12:05:15.862Z,1204.00
2019-04-11T12:06:12.667Z,1164.00
2019-04-11T12:07:12.673Z,1144.00
2019-04-11T12:08:14.887Z,1240.00
2019-04-11T12:09:12.067Z,1356.00
2019-04-11T12:10:11.714Z,1340.00
2019-04-11T12:11:11.701Z,1312.00
2019-04-11T12:12:11.693Z,1308.00
2019-04-11T12:13:13.350Z,1316.00
2019-04-11T12:14:11.765Z,1588.00
2019-04-11T12:15:14.235Z,1584.00
2019-04-11T12:16:16.083Z,1612.00
2019-04-11T12:17:12.634Z,1720.00
2019-04-11T12:18:12.723Z,1692.00
2019-04-11T12:19:15.980Z,1636.00
2019-04-11T12:20:14.938Z,1744.00
2019-04-11T12:21:11.587Z,1612.00
2019-04-11T12:22:12.404Z,1416.00
2019-04-11T12:23:11.566Z,1316.00
2019-04-11T12:24:11.629Z,1288.00
2019-04-11T12:25:12.397Z,1336.00
2019-04-11T12:26:13.658Z,1452.00
2019-04-11T12:27:13.040Z,1500.00
2019-04-11T12:28:14.600Z,1508.00
2019-04-11T12:29:12.224Z,1436.00
2019-04-11T12:30:11.487Z,1404.00
2019-04-11T12:31:11.476Z,1448.00
2019-04-11T12:32:13.258Z,1572.00
2019-04-11T12:33:11.465Z,2988.00
2019-04-11T12:34:12.346Z,1668.00